Llanbrynmair, United Kingdom
Current Conditions -  °F | °C
As of 7:50 PM on Friday 19 Dec 2014 (Local Time) from EGOS Reporting Station
Few Clouds Few Clouds  
Wind Chill:   Ceiling: Unl
Heat Index:   Visibility: 6mi
Dew Point:   Wind: 9mph
Humidity: 81%   Direction: 250°WSW
Pressure: 30.09"   Gusts: NA
Location:  52.61°N, 3.63°W
Report Text: EGOS 191950Z AUTO 25008KT 9999 FEW050/// 06/03 Q1019
Loading
Personal Weather Stations






























Interactive Weather Map New forecast layout! Learn more

10-Day Weather Forecast

Advertisements
Track Severe Weather on mobile